Aérodrome :
LOGIN :

S'inscrire | Disclaimer

   EN    FR    IT 

 










Légende :    VFR   VFR Marginal   IFR   IFR Intensif   IFR Très Intensif
Visi : 
Plafond : 
>= 8 km
>= 3000ft
5 à 8 km
1000 à 3000 ft
1500m à 5 km
500 à 1000 ft
800 à 1500m
200 à 500 ft
< 800m
< 200 ft
Symboles :   Orages  Brouillard  Fortes neiges  Fortes précipitations  Vent > 20 kt
SIGMETs :   Divers  Orages  Givrage  Turbulence  Onde Orograph.  Cendres Volcan.






- Altitude de l'aérodrome : 1276 ft
- Code IATA : STR


EDDS - Stuttgart

DERNIER METAR :
  • 010520Z 33002KT CAVOK M03/M07 Q1021 NOSIG

METARs EXPIRÉS :
  • 010450Z 32002KT CAVOK M03/M07 Q1021 NOSIG
  • 010420Z VRB01KT CAVOK M03/M07 Q1022 NOSIG
  • 010350Z VRB01KT CAVOK M03/M07 Q1022
  • 010320Z VRB01KT CAVOK M02/M06 Q1022
  • 010250Z VRB01KT CAVOK M02/M06 Q1022
  • 010220Z VRB02KT CAVOK M02/M06 Q1022

TAF TAF EDDS
Valide du 01 à 00h jusqu'au 02 à 00h UTC


312300Z 0100/0124 VRB03KT CAVOK
BECMG 0107/0110 05005KT
BECMG 0118/0120 VRB03KT



MET'MAP, la Météo Aéronautique d'un coup d'oeil ! - Copyright ORBIFLY Décembre 2007 - Disclaimer

ORBIFLY MET'MAP TEAM :

Programmation & Développement : Alexandra Zaïnal
Sur une idée originale de : Baudouin d'Aumeries
Assistance à la programmation : Marc-Olivier Méhu
Soutien technique & logistique : Manuel Goepfert

Contact : metmap@orbifly.com




SOURCES & CREDITS :

   NOAA